Time;durP1;ratioP1;P1;durP2;ratioP2;P2;SDS_P1;SDS_P2;PMS_P1;PMS_P2;Temp;Humidity;BMP_temperature;BMP_pressure;BME280_temperature;BME280_humidity;BME280_pressure;Samples;Min_cycle;Max_cycle;Signal;HPM_P1;HPM_P2
2021/01/21 00:02:28;;;;;;;43.60;14.87;;;-0.70;99.90;;;;;;4367949;28;659822;-64
2021/01/21 00:05:15;;;;;;;47.40;15.40;;;-0.60;99.90;;;;;;4358129;28;660484;-64
2021/01/21 00:08:02;;;;;;;52.73;17.67;;;-0.60;99.90;;;;;;4366119;28;659411;-63
2021/01/21 00:10:50;;;;;;;74.37;23.10;;;-0.70;99.90;;;;;;4357786;28;659763;-64
2021/01/21 00:13:36;;;;;;;73.20;21.87;;;-0.90;99.90;;;;;;4367745;28;660218;-63
2021/01/21 00:16:24;;;;;;;59.28;18.35;;;-1.00;99.90;;;;;;4352946;28;659902;-65
2021/01/21 00:19:12;;;;;;;42.23;15.07;;;-1.00;99.90;;;;;;4382845;28;660735;-63
2021/01/21 00:21:59;;;;;;;34.40;12.40;;;-1.10;99.90;;;;;;4344078;28;659912;-63
2021/01/21 00:24:46;;;;;;;33.47;12.83;;;-1.00;99.90;;;;;;4369127;28;660761;-63
2021/01/21 00:27:33;;;;;;;36.10;12.47;;;-0.80;99.90;;;;;;4350933;28;659864;-63
2021/01/21 00:30:21;;;;;;;53.33;17.13;;;-0.90;99.90;;;;;;4332003;28;660482;-64
2021/01/21 00:33:08;;;;;;;75.93;24.88;;;-1.00;99.90;;;;;;4364914;28;660334;-64
2021/01/21 00:35:55;;;;;;;100.97;29.90;;;-1.10;99.90;;;;;;4350808;28;659696;-63
2021/01/21 00:38:42;;;;;;;103.27;31.03;;;-1.20;99.90;;;;;;4358881;28;660763;-63
2021/01/21 00:41:29;;;;;;;70.57;24.83;;;-1.20;99.90;;;;;;4332520;28;660995;-64
2021/01/21 00:44:16;;;;;;;64.73;22.20;;;-1.20;99.90;;;;;;4347702;28;660531;-63
2021/01/21 00:47:04;;;;;;;62.93;21.63;;;-1.30;99.90;;;;;;4362806;28;659447;-65
2021/01/21 00:49:50;;;;;;;59.93;20.90;;;-1.20;99.90;;;;;;4357869;28;661017;-62
2021/01/21 00:52:38;;;;;;;39.27;14.80;;;-1.20;99.90;;;;;;4368618;28;659854;-63
2021/01/21 00:55:25;;;;;;;38.93;13.50;;;-1.30;99.90;;;;;;4351114;28;661384;-63
2021/01/21 00:58:12;;;;;;;36.07;11.57;;;-1.30;99.90;;;;;;4365218;28;660038;-64
2021/01/21 01:00:59;;;;;;;31.73;11.77;;;-1.40;99.90;;;;;;4358298;28;659462;-63
2021/01/21 01:03:47;;;;;;;28.30;11.43;;;-1.30;99.90;;;;;;4368971;28;660694;-63
2021/01/21 01:06:34;;;;;;;42.13;15.90;;;-1.40;99.90;;;;;;4360934;28;659602;-64
2021/01/21 01:09:21;;;;;;;72.93;24.93;;;-1.40;99.90;;;;;;4366053;28;660645;-63
2021/01/21 01:12:09;;;;;;;82.32;26.65;;;-1.50;99.90;;;;;;4357782;28;659949;-65
2021/01/21 01:14:56;;;;;;;58.43;19.30;;;-1.60;99.90;;;;;;4351007;28;661020;-62
2021/01/21 01:17:43;;;;;;;62.50;21.60;;;-1.60;99.90;;;;;;4361917;28;659875;-62
2021/01/21 01:20:30;;;;;;;51.90;16.57;;;-1.60;99.90;;;;;;4341230;28;659884;-62
2021/01/21 01:23:17;;;;;;;52.73;18.37;;;-1.60;99.90;;;;;;4365630;28;660322;-62
2021/01/21 01:26:05;;;;;;;47.53;17.10;;;-1.70;99.90;;;;;;4342776;28;660077;-63
2021/01/21 01:28:52;;;;;;;42.63;15.90;;;-1.70;99.90;;;;;;4382978;28;660548;-62
2021/01/21 01:31:39;;;;;;;33.67;11.87;;;-1.70;99.90;;;;;;4347406;28;659483;-64
2021/01/21 01:34:26;;;;;;;38.50;13.80;;;-1.70;99.90;;;;;;4365015;28;660531;-62
2021/01/21 01:37:13;;;;;;;35.33;13.50;;;-1.60;99.90;;;;;;4371464;28;659666;-62
2021/01/21 01:40:00;;;;;;;41.50;14.07;;;-1.60;99.90;;;;;;4348073;28;660908;-62
2021/01/21 01:42:48;;;;;;;33.90;13.57;;;-1.70;99.90;;;;;;4362947;28;660102;-62
2021/01/21 01:45:35;;;;;;;32.27;11.57;;;-1.70;99.90;;;;;;4365147;28;660632;-62
2021/01/21 01:48:23;;;;;;;40.67;15.05;;;-1.60;99.90;;;;;;4367156;28;660787;-62
2021/01/21 01:51:10;;;;;;;81.37;26.10;;;-1.60;99.90;;;;;;4370011;28;660775;-62
2021/01/21 01:53:59;;;;;;;68.83;23.30;;;-1.70;99.90;;;;;;4376200;28;660013;-61
2021/01/21 01:56:46;;;;;;;47.03;17.07;;;-1.80;99.90;;;;;;4342664;28;661283;-62
2021/01/21 01:59:35;;;;;;;42.93;15.80;;;-1.80;99.90;;;;;;4386021;28;659771;-64
2021/01/21 02:02:22;;;;;;;42.73;14.73;;;-1.70;99.90;;;;;;4378754;28;660723;-61
2021/01/21 02:05:10;;;;;;;38.10;14.37;;;-1.70;99.90;;;;;;4345882;28;659745;-64
2021/01/21 02:08:00;;;;;;;36.53;14.17;;;-1.70;99.90;;;;;;4369973;28;660128;-62
2021/01/21 02:10:47;;;;;;;37.33;14.03;;;-1.70;99.90;;;;;;4346805;28;659723;-63
2021/01/21 02:13:44;;;;;;;48.33;16.30;;;-1.60;99.90;;;;;;4344977;28;660037;-63
2021/01/21 02:16:46;;;;;;;62.00;17.83;;;-1.60;99.90;;;;;;4353124;28;659690;-62
2021/01/21 02:20:24;;;;;;;45.17;17.70;;;-1.70;99.90;;;;;;4347224;28;659919;-62
2021/01/21 02:23:32;;;;;;;43.67;17.67;;;-1.80;99.90;;;;;;4324349;28;660452;-62
2021/01/21 02:26:22;;;;;;;50.95;19.92;;;-1.90;99.90;;;;;;4351485;28;659671;-64
2021/01/21 02:29:10;;;;;;;57.07;19.30;;;-2.00;99.90;;;;;;4355923;28;660400;-64
2021/01/21 02:32:16;;;;;;;53.43;19.20;;;-2.00;99.90;;;;;;4374141;28;659919;-62
2021/01/21 02:35:04;;;;;;;39.20;15.40;;;-1.90;99.90;;;;;;4346690;28;659828;-61
2021/01/21 02:37:53;;;;;;;51.93;19.77;;;-2.00;99.90;;;;;;4346297;28;660735;-63
2021/01/21 02:40:41;;;;;;;48.63;15.87;;;-1.90;99.90;;;;;;4341612;28;660579;-64
2021/01/21 02:43:28;;;;;;;38.80;14.52;;;-1.90;99.90;;;;;;4370084;28;659929;-62
2021/01/21 02:46:15;;;;;;;43.30;16.33;;;-1.90;99.90;;;;;;4350644;28;659606;-62
2021/01/21 02:49:03;;;;;;;51.57;16.47;;;-1.80;99.90;;;;;;4380751;28;660652;-62
2021/01/21 02:51:57;;;;;;;42.57;15.63;;;-1.80;99.90;;;;;;4354844;28;659593;-64
2021/01/21 02:54:52;;;;;;;46.17;15.83;;;-1.80;99.90;;;;;;4351576;28;659534;-63
2021/01/21 02:57:40;;;;;;;50.40;18.23;;;-1.70;99.90;;;;;;4341620;28;659760;-62
2021/01/21 03:00:27;;;;;;;54.37;17.67;;;-1.80;99.90;;;;;;4362861;28;659400;-62
2021/01/21 03:03:15;;;;;;;43.53;15.83;;;-1.80;99.90;;;;;;4347900;28;659729;-62
2021/01/21 03:06:02;;;;;;;35.57;15.07;;;-1.80;99.90;;;;;;4368168;28;660707;-62
2021/01/21 03:08:50;;;;;;;40.03;14.10;;;-1.80;99.90;;;;;;4351110;28;659583;-62
2021/01/21 03:11:37;;;;;;;42.07;15.93;;;-1.80;99.90;;;;;;4367922;28;659657;-62
2021/01/21 03:14:24;;;;;;;39.40;14.63;;;-1.80;99.90;;;;;;4350985;28;659742;-63
2021/01/21 03:17:11;;;;;;;45.33;18.50;;;-1.80;99.90;;;;;;4362583;28;659768;-62
2021/01/21 03:19:59;;;;;;;57.60;21.83;;;-1.80;99.90;;;;;;4359225;28;660174;-65
2021/01/21 03:22:46;;;;;;;70.37;22.30;;;-1.80;99.90;;;;;;4361652;28;659794;-62
2021/01/21 03:25:33;;;;;;;43.25;15.57;;;-1.90;99.90;;;;;;4364432;28;659989;-61
2021/01/21 03:28:21;;;;;;;34.43;13.53;;;-2.00;99.90;;;;;;4340048;28;661350;-62
2021/01/21 03:31:07;;;;;;;30.30;13.67;;;-2.00;99.90;;;;;;4369175;28;659565;-62
2021/01/21 03:33:55;;;;;;;34.47;14.60;;;-2.00;99.90;;;;;;4340431;28;660017;-62
2021/01/21 03:36:42;;;;;;;41.43;13.63;;;-2.00;99.90;;;;;;4369645;28;659542;-63
2021/01/21 03:39:29;;;;;;;35.73;13.83;;;-1.90;99.90;;;;;;4333226;28;659776;-62
2021/01/21 03:42:17;;;;;;;47.00;15.30;;;-1.90;99.90;;;;;;4372838;28;661773;-63
2021/01/21 03:45:05;;;;;;;46.97;15.80;;;-1.90;99.90;;;;;;4344848;28;659659;-62
2021/01/21 03:47:52;;;;;;;38.50;14.23;;;-1.90;99.90;;;;;;4368930;28;659231;-62
2021/01/21 03:50:39;;;;;;;50.43;18.07;;;-1.90;99.90;;;;;;4350812;28;659686;-64
2021/01/21 03:53:26;;;;;;;45.63;17.10;;;-1.80;99.90;;;;;;4369296;28;659781;-62
2021/01/21 03:56:14;;;;;;;48.73;17.73;;;-1.90;99.90;;;;;;4365751;28;659547;-64
2021/01/21 03:59:02;;;;;;;43.60;17.23;;;-1.90;99.90;;;;;;4372349;28;660106;-63
2021/01/21 04:01:49;;;;;;;44.85;17.63;;;-1.90;99.90;;;;;;4353897;28;659858;-64
2021/01/21 04:04:36;;;;;;;47.03;18.48;;;-2.00;99.90;;;;;;4365313;28;659790;-62
2021/01/21 04:07:22;;;;;;;43.70;15.30;;;-2.10;99.90;;;;;;4368920;28;659499;-62
2021/01/21 04:10:10;;;;;;;36.23;14.77;;;-2.10;99.90;;;;;;4343672;28;659554;-62
2021/01/21 04:12:57;;;;;;;31.60;13.47;;;-2.10;99.90;;;;;;4361382;28;660315;-63
2021/01/21 04:15:46;;;;;;;33.10;14.57;;;-2.10;99.90;;;;;;4353965;28;659603;-63
2021/01/21 04:18:33;;;;;;;51.43;16.83;;;-2.10;99.90;;;;;;4365638;28;659116;-63
2021/01/21 04:21:20;;;;;;;56.60;17.50;;;-2.10;99.90;;;;;;4349999;28;660722;-62
2021/01/21 04:24:07;;;;;;;34.60;12.53;;;-2.20;99.90;;;;;;4361018;28;660008;-62
2021/01/21 04:26:54;;;;;;;33.00;11.97;;;-2.20;99.90;;;;;;4356539;28;659768;-62
2021/01/21 04:29:41;;;;;;;30.30;11.37;;;-2.10;99.90;;;;;;4368553;28;661320;-62
2021/01/21 04:32:29;;;;;;;28.17;10.93;;;-2.00;99.90;;;;;;4344708;28;660392;-62
2021/01/21 04:35:16;;;;;;;46.13;15.60;;;-2.00;99.90;;;;;;4350224;28;660127;-63
2021/01/21 04:38:03;;;;;;;50.17;17.13;;;-2.00;99.90;;;;;;4364959;28;659742;-62
2021/01/21 04:40:50;;;;;;;66.30;20.83;;;-2.00;99.90;;;;;;4347769;28;659617;-62
2021/01/21 04:43:38;;;;;;;57.73;19.47;;;-1.90;99.90;;;;;;4373459;28;660238;-62
2021/01/21 04:46:25;;;;;;;40.30;15.87;;;-2.00;99.90;;;;;;4352962;28;659897;-62
2021/01/21 04:49:13;;;;;;;50.33;19.20;;;-2.10;99.90;;;;;;4385898;28;660536;-62
2021/01/21 04:52:02;;;;;;;74.93;25.67;;;-2.10;99.90;;;;;;4354508;28;660883;-62
2021/01/21 04:54:51;;;;;;;71.88;26.92;;;-2.10;99.90;;;;;;4360217;28;659805;-64
2021/01/21 04:57:42;;;;;;;69.38;23.00;;;-2.20;99.90;;;;;;4379758;28;659627;-62
2021/01/21 05:00:29;;;;;;;55.57;19.57;;;-2.20;99.90;;;;;;4333551;28;659993;-63
2021/01/21 05:03:16;;;;;;;45.70;17.50;;;-2.20;99.90;;;;;;4388187;28;660528;-62
2021/01/21 05:06:05;;;;;;;63.77;20.30;;;-2.20;99.90;;;;;;4362499;28;660484;-63
2021/01/21 05:08:52;;;;;;;66.70;23.37;;;-2.10;99.90;;;;;;4378933;28;660563;-63
2021/01/21 05:11:39;;;;;;;64.73;21.30;;;-2.20;99.90;;;;;;4353441;28;660246;-64
2021/01/21 05:14:26;;;;;;;95.97;27.70;;;-2.10;99.90;;;;;;4380117;28;660276;-63
2021/01/21 05:17:13;;;;;;;118.17;35.23;;;-2.10;99.90;;;;;;4371981;28;661178;-63
2021/01/21 05:20:01;;;;;;;65.03;20.33;;;-1.10;99.90;;;;;;4332910;28;662197;-63
2021/01/21 05:22:49;;;;;;;45.03;16.93;;;-0.60;99.90;;;;;;4371795;28;660248;-62
2021/01/21 05:25:36;;;;;;;45.07;15.80;;;-0.50;99.90;;;;;;4344715;28;660746;-62
2021/01/21 05:28:24;;;;;;;23.80;9.87;;;-0.30;99.90;;;;;;4378393;28;659621;-64
2021/01/21 05:31:11;;;;;;;54.43;18.80;;;0.30;99.90;;;;;;4367750;28;660139;-62
2021/01/21 05:33:59;;;;;;;23.10;9.40;;;0.50;99.90;;;;;;4374724;28;658265;-63
2021/01/21 05:36:46;;;;;;;23.53;9.23;;;0.80;99.90;;;;;;4378006;28;658704;-62
2021/01/21 05:39:37;;;;;;;23.37;9.40;;;0.90;99.90;;;;;;4370739;28;658323;-64
2021/01/21 05:42:24;;;;;;;25.70;10.93;;;0.90;99.90;;;;;;4354776;28;657562;-63
2021/01/21 05:45:12;;;;;;;27.57;10.90;;;0.80;99.90;;;;;;4375836;28;659235;-62
2021/01/21 05:48:00;;;;;;;25.33;9.63;;;0.60;99.90;;;;;;4353357;28;658653;-62
2021/01/21 05:50:47;;;;;;;27.17;11.00;;;0.60;99.90;;;;;;4372457;28;658484;-63
2021/01/21 05:53:34;;;;;;;27.50;11.23;;;0.50;99.90;;;;;;4333740;28;658858;-63
2021/01/21 05:56:23;;;;;;;28.13;10.43;;;0.50;99.90;;;;;;4390922;28;659858;-63
2021/01/21 05:59:10;;;;;;;22.40;9.60;;;0.40;99.90;;;;;;4361607;28;658966;-63
2021/01/21 06:01:57;;;;;;;25.97;9.00;;;0.40;99.90;;;;;;4366638;28;658781;-62
2021/01/21 06:04:46;;;;;;;21.60;9.10;;;0.50;99.90;;;;;;4363497;28;659074;-63
2021/01/21 06:07:34;;;;;;;22.53;8.43;;;0.60;99.90;;;;;;4377433;28;657712;-64
2021/01/21 06:10:21;;;;;;;22.90;9.13;;;0.70;99.90;;;;;;4387094;28;657628;-61
2021/01/21 06:13:10;;;;;;;21.20;8.18;;;0.70;99.90;;;;;;4352730;28;657860;-64
2021/01/21 06:15:57;;;;;;;22.23;9.00;;;0.80;99.90;;;;;;4382428;28;658501;-62
2021/01/21 06:18:44;;;;;;;18.97;8.13;;;0.70;99.90;;;;;;4366298;28;657340;-63
2021/01/21 06:21:34;;;;;;;20.80;9.13;;;0.60;99.90;;;;;;4381665;28;658899;-62
2021/01/21 06:24:24;;;;;;;25.80;9.37;;;0.70;99.90;;;;;;4359818;28;658681;-62
2021/01/21 06:27:11;;;;;;;20.73;8.70;;;0.50;99.90;;;;;;4350642;28;658447;-62
2021/01/21 06:30:00;;;;;;;19.37;8.50;;;0.20;99.90;;;;;;4354956;28;658452;-64
2021/01/21 06:32:54;;;;;;;24.07;9.47;;;0.00;99.90;;;;;;4373358;28;659387;-62
2021/01/21 06:35:42;;;;;;;22.83;9.53;;;-0.10;99.90;;;;;;4327231;28;658667;-62
2021/01/21 06:38:38;;;;;;;27.80;9.47;;;-0.20;99.90;;;;;;4323450;28;660292;-62
2021/01/21 06:41:26;;;;;;;21.53;8.90;;;-0.30;99.90;;;;;;4327384;28;661540;-59
2021/01/21 06:44:14;;;;;;;22.27;9.67;;;-0.40;99.90;;;;;;4362406;28;660107;-59
2021/01/21 06:47:02;;;;;;;26.80;10.83;;;-0.60;99.90;;;;;;4347728;28;660664;-60
2021/01/21 06:49:51;;;;;;;38.13;13.90;;;-0.60;99.90;;;;;;4343324;28;661457;-60
2021/01/21 06:52:38;;;;;;;40.25;15.00;;;-0.70;99.90;;;;;;4377433;28;661558;-60
2021/01/21 06:55:25;;;;;;;81.32;23.65;;;-0.60;99.90;;;;;;4335638;28;661050;-59
2021/01/21 06:58:12;;;;;;;37.13;14.75;;;-0.60;99.90;;;;;;4370924;28;661130;-60
2021/01/21 07:00:59;;;;;;;48.53;15.68;;;-0.50;99.90;;;;;;4346415;28;661951;-62
2021/01/21 07:03:48;;;;;;;31.88;12.23;;;-0.50;99.90;;;;;;4374548;28;660439;-60
2021/01/21 07:06:58;;;;;;;32.63;12.87;;;-0.50;99.90;;;;;;4335106;28;661674;-60
2021/01/21 07:09:45;;;;;;;47.70;16.07;;;-0.50;99.90;;;;;;4324042;28;660777;-61
2021/01/21 07:12:32;;;;;;;43.23;14.50;;;-0.50;99.90;;;;;;4362598;28;660242;-61
2021/01/21 07:15:19;;;;;;;44.60;17.80;;;-0.40;99.90;;;;;;4345601;28;660559;-62
2021/01/21 07:18:07;;;;;;;97.53;22.03;;;-0.40;99.90;;;;;;4360462;28;661434;-60
2021/01/21 07:21:16;;;;;;;56.87;20.37;;;-0.30;99.90;;;;;;4345588;28;662033;-62
2021/01/21 07:24:03;;;;;;;126.00;37.73;;;-0.30;99.90;;;;;;4343265;28;661615;-60
2021/01/21 07:26:50;;;;;;;133.95;39.83;;;-0.30;99.90;;;;;;4350903;28;662947;-61
2021/01/21 07:29:39;;;;;;;260.67;81.07;;;-0.20;99.90;;;;;;4369514;28;662347;-60
2021/01/21 07:32:27;;;;;;;176.03;57.37;;;-0.20;99.90;;;;;;4349518;28;663030;-60
2021/01/21 07:35:36;;;;;;;313.57;101.77;;;-0.10;99.90;;;;;;4352906;28;661980;-61
2021/01/21 07:38:49;;;;;;;114.72;38.38;;;0.00;99.90;;;;;;4341289;28;663475;-60
2021/01/21 07:41:53;;;;;;;207.73;67.40;;;0.00;99.90;;;;;;4254181;29;662492;-60
2021/01/21 07:44:53;;;;;;;224.37;79.57;;;0.10;99.90;;;;;;4281157;29;661500;-60
2021/01/21 07:47:41;;;;;;;252.20;73.83;;;0.30;99.90;;;;;;4274723;29;662138;-61
2021/01/21 07:50:45;;;;;;;127.80;44.73;;;0.30;99.90;;;;;;4313893;29;661707;-60
2021/01/21 07:53:32;;;;;;;225.53;60.93;;;0.30;99.90;;;;;;4271390;29;661193;-60
2021/01/21 07:56:20;;;;;;;189.60;54.33;;;0.40;99.90;;;;;;4280147;28;660313;-61
2021/01/21 07:59:07;;;;;;;97.77;30.33;;;0.60;99.90;;;;;;4292064;29;660271;-60
2021/01/21 08:01:58;;;;;;;246.10;72.33;;;1.00;99.90;;;;;;4295796;29;659495;-61
2021/01/21 08:04:58;;;;;;;27.57;9.80;;;1.40;99.90;;;;;;4275475;29;660792;-61
2021/01/21 08:07:46;;;;;;;36.67;13.27;;;1.90;99.90;;;;;;4272408;29;659844;-62
2021/01/21 08:10:34;;;;;;;29.90;11.60;;;2.50;99.90;;;;;;4320462;28;659882;-63
2021/01/21 08:13:22;;;;;;;36.73;11.90;;;3.50;99.90;;;;;;4273101;29;660385;-63
2021/01/21 08:16:12;;;;;;;27.73;10.10;;;4.30;99.90;;;;;;4296552;29;660063;-63
2021/01/21 08:19:02;;;;;;;31.73;11.30;;;4.60;99.90;;;;;;4278774;29;659901;-63
2021/01/21 08:21:49;;;;;;;17.47;6.57;;;5.00;99.90;;;;;;4324039;28;659652;-64
2021/01/21 08:24:57;;;;;;;20.27;8.53;;;5.60;99.90;;;;;;4376089;28;659939;-62
2021/01/21 08:27:44;;;;;;;20.60;8.40;;;6.10;99.90;;;;;;4338267;28;659184;-64
2021/01/21 08:30:32;;;;;;;24.67;9.60;;;6.80;99.90;;;;;;4377975;28;659799;-62
2021/01/21 08:33:21;;;;;;;28.00;11.17;;;7.20;97.20;;;;;;4362035;28;658750;-63
2021/01/21 08:36:08;;;;;;;21.98;7.38;;;7.50;89.70;;;;;;4370319;28;660665;-63
2021/01/21 08:38:55;;;;;;;20.00;9.00;;;7.70;82.50;;;;;;4348233;28;659442;-62
2021/01/21 08:41:43;;;;;;;21.03;9.33;;;8.20;80.80;;;;;;4386866;28;658799;-63
2021/01/21 08:44:30;;;;;;;25.07;10.17;;;8.30;75.90;;;;;;4352223;28;658847;-63
2021/01/21 08:47:18;;;;;;;21.00;8.93;;;8.30;77.50;;;;;;4369040;28;660212;-62
2021/01/21 08:50:06;;;;;;;23.00;9.13;;;8.30;75.10;;;;;;4351904;28;658672;-62
2021/01/21 08:53:01;;;;;;;19.50;7.77;;;8.30;76.10;;;;;;4354288;28;658249;-64
2021/01/21 08:55:49;;;;;;;17.83;7.47;;;8.50;77.30;;;;;;4345221;28;658464;-63
2021/01/21 08:58:36;;;;;;;18.23;7.23;;;8.60;76.60;;;;;;4344830;28;659737;-63
2021/01/21 09:01:24;;;;;;;22.73;9.32;;;8.60;74.50;;;;;;4359423;28;658565;-64
2021/01/21 09:04:26;;;;;;;18.47;7.43;;;8.90;73.00;;;;;;4378111;28;658906;-63
2021/01/21 09:07:13;;;;;;;19.47;8.00;;;9.30;71.70;;;;;;4345643;28;658301;-62
2021/01/21 09:10:09;;;;;;;15.60;7.23;;;9.40;70.20;;;;;;4347911;28;660088;-62
2021/01/21 09:13:00;;;;;;;21.60;7.93;;;9.70;70.00;;;;;;4331321;28;659669;-62
2021/01/21 09:15:55;;;;;;;20.27;8.63;;;10.20;66.60;;;;;;4361729;28;659589;-63
2021/01/21 09:18:46;;;;;;;23.00;8.60;;;10.70;64.40;;;;;;4335402;28;659786;-63
2021/01/21 09:21:33;;;;;;;20.20;9.40;;;11.20;63.80;;;;;;4346640;28;659501;-61
2021/01/21 09:24:20;;;;;;;28.37;13.33;;;11.80;60.00;;;;;;4348323;28;660542;-62
2021/01/21 09:27:11;;;;;;;28.47;12.43;;;12.20;60.00;;;;;;4362061;28;660489;-62
2021/01/21 09:29:59;;;;;;;28.00;12.60;;;12.60;58.30;;;;;;4321232;28;661077;-63
2021/01/21 09:32:46;;;;;;;28.57;12.93;;;12.50;56.70;;;;;;4366078;28;661976;-62
2021/01/21 09:35:34;;;;;;;38.57;16.20;;;13.00;56.20;;;;;;4358642;28;660846;-63
2021/01/21 09:38:22;;;;;;;29.58;12.00;;;13.30;54.60;;;;;;4376363;28;662408;-61
2021/01/21 09:41:09;;;;;;;24.80;11.97;;;13.10;53.40;;;;;;4332260;28;660811;-62
2021/01/21 09:43:56;;;;;;;26.97;12.53;;;13.00;53.80;;;;;;4370354;28;661721;-61
2021/01/21 09:46:45;;;;;;;29.57;12.63;;;12.60;54.00;;;;;;4363706;28;660690;-62
2021/01/21 09:49:32;;;;;;;29.97;13.90;;;12.90;54.00;;;;;;4364288;28;661333;-61
2021/01/21 09:52:19;;;;;;;29.37;14.33;;;13.20;54.80;;;;;;4358466;28;660887;-62
2021/01/21 09:55:08;;;;;;;46.23;18.57;;;13.90;53.50;;;;;;4370757;28;661724;-61
2021/01/21 09:57:55;;;;;;;50.97;20.23;;;14.20;51.50;;;;;;4346950;28;661228;-61
2021/01/21 10:00:42;;;;;;;126.13;41.67;;;14.20;51.10;;;;;;4364222;28;662111;-61
2021/01/21 10:03:29;;;;;;;75.10;28.27;;;14.20;50.70;;;;;;4338084;28;661965;-62
2021/01/21 10:06:16;;;;;;;60.53;24.77;;;14.40;50.90;;;;;;4354516;28;662124;-62
2021/01/21 10:09:04;;;;;;;49.57;20.57;;;14.40;49.80;;;;;;4363686;28;660935;-63
2021/01/21 10:11:51;;;;;;;57.00;22.57;;;14.90;51.10;;;;;;4362281;28;660883;-61
2021/01/21 10:14:39;;;;;;;55.63;22.27;;;15.30;48.90;;;;;;4347908;28;660567;-63
2021/01/21 10:17:26;;;;;;;52.13;21.77;;;15.50;48.10;;;;;;4366978;28;661096;-61
2021/01/21 10:20:14;;;;;;;52.73;21.20;;;16.10;47.80;;;;;;4363082;28;661203;-61
2021/01/21 10:23:01;;;;;;;69.13;28.77;;;16.50;45.40;;;;;;4338492;28;662234;-61
2021/01/21 10:25:49;;;;;;;26.73;12.30;;;16.70;46.20;;;;;;4345803;28;660483;-62
2021/01/21 10:28:39;;;;;;;31.07;13.87;;;17.10;43.60;;;;;;4360679;28;661276;-61
2021/01/21 10:31:26;;;;;;;27.33;12.13;;;16.50;43.30;;;;;;4342475;28;661549;-61
2021/01/21 10:34:13;;;;;;;31.33;14.77;;;16.20;44.10;;;;;;4367417;28;661589;-61
2021/01/21 10:37:00;;;;;;;33.07;13.07;;;16.20;44.90;;;;;;4347767;28;662107;-61
2021/01/21 10:39:47;;;;;;;29.60;13.30;;;16.40;44.20;;;;;;4364641;28;661996;-61
2021/01/21 10:42:34;;;;;;;31.50;14.73;;;16.40;44.10;;;;;;4352010;28;662606;-62
2021/01/21 10:45:22;;;;;;;31.13;13.90;;;16.40;44.60;;;;;;4373086;28;662586;-60
2021/01/21 10:48:10;;;;;;;21.90;10.60;;;16.90;43.70;;;;;;4346347;28;662260;-61
2021/01/21 10:50:57;;;;;;;27.10;12.43;;;17.30;42.20;;;;;;4351186;28;661765;-61
2021/01/21 10:53:44;;;;;;;15.23;6.57;;;17.10;41.80;;;;;;4341219;28;661957;-61
2021/01/21 10:56:33;;;;;;;25.20;8.50;;;16.10;43.00;;;;;;4337791;28;661366;-60
2021/01/21 10:59:20;;;;;;;19.53;8.30;;;15.40;45.30;;;;;;4336333;28;659666;-60
2021/01/21 11:02:08;;;;;;;24.80;10.67;;;15.10;46.30;;;;;;4366147;28;660477;-60
2021/01/21 11:04:55;;;;;;;26.67;11.53;;;14.80;46.70;;;;;;4341999;28;661669;-61
2021/01/21 11:07:42;;;;;;;29.10;13.20;;;15.20;46.70;;;;;;4353918;28;662088;-60
2021/01/21 11:10:29;;;;;;;24.97;11.60;;;15.90;45.10;;;;;;4331939;28;660604;-61
2021/01/21 11:13:19;;;;;;;23.07;8.30;;;15.60;46.00;;;;;;4360453;28;661275;-61
2021/01/21 11:16:06;;;;;;;20.63;8.47;;;15.30;46.00;;;;;;4338456;28;660716;-61
2021/01/21 11:18:55;;;;;;;16.57;6.97;;;15.60;45.30;;;;;;4358104;28;659611;-61
2021/01/21 11:21:42;;;;;;;11.90;4.73;;;15.40;45.90;;;;;;4359933;28;660200;-59
2021/01/21 11:24:29;;;;;;;18.73;8.07;;;15.40;45.90;;;;;;4353314;28;660347;-61
2021/01/21 11:27:16;;;;;;;14.83;7.07;;;15.40;45.90;;;;;;4380071;28;659829;-59
2021/01/21 11:30:03;;;;;;;17.13;6.77;;;14.60;46.90;;;;;;4369534;28;659674;-60
2021/01/21 11:32:50;;;;;;;14.07;7.57;;;15.00;46.80;;;;;;4361384;28;660385;-60
2021/01/21 11:35:38;;;;;;;14.53;6.53;;;15.00;46.30;;;;;;4370146;28;659484;-59
2021/01/21 11:38:25;;;;;;;10.43;4.40;;;14.30;47.60;;;;;;4334155;28;659534;-59
2021/01/21 11:41:12;;;;;;;14.00;6.43;;;13.40;49.30;;;;;;4362214;28;660497;-59
2021/01/21 11:43:59;;;;;;;11.87;5.17;;;13.20;50.70;;;;;;4352303;28;659569;-60
2021/01/21 11:46:46;;;;;;;13.43;5.63;;;13.20;49.70;;;;;;4366107;28;661751;-60
2021/01/21 11:49:33;;;;;;;11.03;4.57;;;13.60;49.70;;;;;;4381975;28;659713;-60
2021/01/21 11:52:21;;;;;;;9.63;4.00;;;13.90;49.50;;;;;;4357813;28;661234;-61
2021/01/21 11:55:08;;;;;;;9.83;5.43;;;13.90;49.80;;;;;;4365818;28;658824;-60
2021/01/21 11:57:55;;;;;;;13.00;6.00;;;14.70;48.70;;;;;;4368209;28;659359;-60
2021/01/21 12:00:42;;;;;;;12.50;5.83;;;15.70;46.00;;;;;;4358076;28;659187;-60
2021/01/21 12:03:29;;;;;;;13.43;6.20;;;15.30;46.40;;;;;;4352964;28;659464;-60
2021/01/21 12:06:16;;;;;;;9.37;3.60;;;15.80;46.20;;;;;;4373044;28;661263;-60
2021/01/21 12:09:05;;;;;;;12.30;5.83;;;16.20;45.10;;;;;;4367986;28;658620;-61
2021/01/21 12:11:52;;;;;;;15.17;5.60;;;17.10;43.80;;;;;;4372619;28;660583;-60
2021/01/21 12:14:39;;;;;;;10.87;5.10;;;17.60;43.00;;;;;;4357460;28;661634;-61
2021/01/21 12:17:26;;;;;;;11.47;5.60;;;18.10;40.80;;;;;;4373387;28;661226;-60
2021/01/21 12:20:14;;;;;;;6.30;3.10;;;17.00;42.80;;;;;;4382436;28;660850;-60
2021/01/21 12:23:01;;;;;;;10.60;4.80;;;16.30;43.70;;;;;;4353615;28;659768;-60
2021/01/21 12:25:49;;;;;;;12.27;5.83;;;17.00;43.30;;;;;;4382978;28;659934;-60
2021/01/21 12:28:36;;;;;;;10.27;4.50;;;17.90;42.40;;;;;;4350782;28;661308;-60
2021/01/21 12:31:23;;;;;;;8.63;3.13;;;18.50;40.80;;;;;;4368161;28;659759;-60
2021/01/21 12:34:10;;;;;;;10.07;4.90;;;18.20;40.30;;;;;;4370713;28;658673;-60
2021/01/21 12:36:57;;;;;;;8.40;4.13;;;18.30;40.70;;;;;;4356720;28;660955;-60
2021/01/21 12:39:44;;;;;;;14.25;5.20;;;19.10;39.70;;;;;;4338173;28;658584;-60
2021/01/21 12:42:32;;;;;;;8.13;3.33;;;18.00;40.50;;;;;;4362735;28;661712;-59
2021/01/21 12:45:19;;;;;;;9.73;4.70;;;17.30;41.90;;;;;;4353800;28;660939;-61
2021/01/21 12:48:07;;;;;;;12.73;4.27;;;17.80;42.00;;;;;;4369996;28;660696;-60
2021/01/21 12:50:54;;;;;;;10.83;4.57;;;18.80;39.70;;;;;;4358458;28;659772;-60
2021/01/21 12:53:41;;;;;;;11.07;4.20;;;17.60;41.10;;;;;;4365018;28;660787;-59
2021/01/21 12:56:29;;;;;;;12.07;4.43;;;16.30;43.20;;;;;;4365759;28;660180;-60
2021/01/21 12:59:16;;;;;;;11.13;4.13;;;16.20;43.60;;;;;;4374248;28;660639;-59
2021/01/21 13:02:04;;;;;;;19.77;6.80;;;16.00;44.00;;;;;;4357028;28;659700;-61
2021/01/21 13:04:52;;;;;;;13.47;5.47;;;16.60;43.40;;;;;;4375745;28;659671;-59
2021/01/21 13:07:40;;;;;;;15.03;6.30;;;16.90;43.00;;;;;;4351845;28;659752;-60
2021/01/21 13:10:27;;;;;;;15.23;6.03;;;17.40;42.50;;;;;;4380927;28;660251;-60
2021/01/21 13:13:14;;;;;;;12.67;5.53;;;17.90;41.30;;;;;;4356452;28;659699;-61
2021/01/21 13:16:02;;;;;;;8.85;4.13;;;18.10;40.70;;;;;;4375825;28;661155;-60
2021/01/21 13:18:49;;;;;;;8.87;4.47;;;18.80;39.80;;;;;;4344144;28;658517;-60
2021/01/21 13:21:36;;;;;;;15.63;7.53;;;19.10;39.20;;;;;;4375403;28;659214;-59
2021/01/21 13:24:23;;;;;;;16.20;7.17;;;19.10;39.20;;;;;;4370276;28;659563;-60
2021/01/21 13:27:10;;;;;;;17.80;6.33;;;18.30;39.50;;;;;;4359138;28;660895;-60
2021/01/21 13:29:57;;;;;;;11.80;5.27;;;17.70;40.50;;;;;;4374531;28;660295;-60
2021/01/21 13:32:46;;;;;;;11.30;5.00;;;17.60;41.20;;;;;;4352240;28;659638;-59
2021/01/21 13:35:33;;;;;;;11.27;5.40;;;18.00;40.60;;;;;;4371936;28;660329;-59
2021/01/21 13:38:20;;;;;;;15.30;6.80;;;18.10;40.10;;;;;;4357192;28;660848;-60
2021/01/21 13:41:07;;;;;;;15.63;7.32;;;18.30;40.20;;;;;;4388777;28;661078;-59
2021/01/21 13:43:54;;;;;;;18.43;8.50;;;18.10;40.20;;;;;;4369245;28;659686;-60
2021/01/21 13:46:41;;;;;;;18.70;7.93;;;17.90;40.30;;;;;;4374546;28;661028;-59
2021/01/21 13:49:30;;;;;;;15.83;7.67;;;17.70;40.70;;;;;;4373391;28;659645;-60
2021/01/21 13:52:17;;;;;;;18.50;8.77;;;16.90;40.60;;;;;;4366503;28;660267;-59
2021/01/21 13:55:04;;;;;;;20.13;8.75;;;16.80;41.80;;;;;;4346128;28;660218;-61
2021/01/21 13:57:52;;;;;;;20.17;9.87;;;16.70;42.60;;;;;;4389121;28;660883;-60
2021/01/21 14:00:39;;;;;;;22.27;9.97;;;16.20;43.00;;;;;;4354541;28;660816;-60
2021/01/21 14:03:26;;;;;;;21.53;10.37;;;16.00;43.50;;;;;;4369458;28;661502;-60
2021/01/21 14:06:14;;;;;;;20.83;9.60;;;16.10;43.90;;;;;;4380514;28;660970;-59
2021/01/21 14:09:02;;;;;;;28.07;11.60;;;15.60;43.80;;;;;;4354946;28;661318;-59
2021/01/21 14:11:49;;;;;;;27.63;11.37;;;15.00;45.00;;;;;;4352557;28;660985;-59